Time;durP1;ratioP1;P1;durP2;ratioP2;P2;SDS_P1;SDS_P2;PMS_P1;PMS_P2;Temp;Humidity;BMP_temperature;BMP_pressure;BME280_temperature;BME280_humidity;BME280_pressure;Samples;Min_cycle;Max_cycle;Signal;HPM_P1;HPM_P2
2022/03/27 00:02:20;;;;;;;20.03;17.40;;;9.90;99.90;;;;;;5012898;28;20218;-66
2022/03/27 00:04:46;;;;;;;25.40;18.27;;;9.90;99.90;;;;;;5013053;28;20649;-66
2022/03/27 00:07:12;;;;;;;21.83;16.60;;;9.70;99.90;;;;;;5013300;28;20669;-67
2022/03/27 00:09:39;;;;;;;21.70;17.67;;;9.70;99.90;;;;;;5013694;28;20184;-66
2022/03/27 00:12:05;;;;;;;22.10;19.00;;;9.70;99.90;;;;;;5012149;28;20180;-67
2022/03/27 00:14:31;;;;;;;22.57;18.10;;;9.60;99.90;;;;;;5013483;28;20172;-67
2022/03/27 00:16:57;;;;;;;23.87;17.77;;;9.60;99.90;;;;;;5013079;28;20222;-66
2022/03/27 00:19:23;;;;;;;21.57;17.00;;;9.60;99.90;;;;;;5012174;28;20176;-67
2022/03/27 00:21:49;;;;;;;24.27;18.73;;;9.60;99.90;;;;;;5013550;28;20757;-67
2022/03/27 00:24:15;;;;;;;24.47;18.87;;;9.50;99.90;;;;;;5012788;28;20255;-67
2022/03/27 00:26:41;;;;;;;29.47;18.57;;;9.50;99.90;;;;;;5011871;28;20230;-66
2022/03/27 00:29:06;;;;;;;22.07;17.77;;;9.50;99.90;;;;;;5012820;28;20263;-66
2022/03/27 00:31:35;;;;;;;18.30;16.30;;;9.40;99.90;;;;;;5013252;28;20263;-66
2022/03/27 00:34:02;;;;;;;21.77;17.20;;;9.30;99.90;;;;;;5012927;28;20184;-66
2022/03/27 00:36:28;;;;;;;22.97;16.87;;;9.20;99.90;;;;;;5012953;28;20192;-66
2022/03/27 00:38:53;;;;;;;22.73;18.60;;;9.20;99.90;;;;;;5011534;28;20191;-66
2022/03/27 00:41:19;;;;;;;22.03;17.67;;;9.20;99.90;;;;;;5012705;28;20176;-66
2022/03/27 00:43:45;;;;;;;25.87;17.77;;;9.20;99.90;;;;;;5013104;28;20661;-66
2022/03/27 00:46:11;;;;;;;24.47;16.97;;;9.10;99.90;;;;;;5012197;28;20200;-66
2022/03/27 00:48:37;;;;;;;20.63;16.60;;;9.10;99.90;;;;;;5013014;28;20179;-66
2022/03/27 00:51:03;;;;;;;21.63;17.00;;;9.00;99.90;;;;;;5012328;28;20184;-66
2022/03/27 00:53:29;;;;;;;23.30;16.57;;;9.10;99.90;;;;;;5012559;28;20299;-66
2022/03/27 00:55:55;;;;;;;26.40;18.63;;;9.10;99.90;;;;;;5012275;28;20609;-66
2022/03/27 00:58:22;;;;;;;21.40;18.87;;;9.10;99.90;;;;;;5011147;28;20172;-66
2022/03/27 01:00:49;;;;;;;19.87;17.87;;;9.00;99.90;;;;;;5000372;28;20662;-66
2022/03/27 01:03:18;;;;;;;20.13;16.57;;;8.90;99.90;;;;;;5012203;28;20234;-66
2022/03/27 01:05:45;;;;;;;22.17;17.80;;;8.80;99.90;;;;;;5012260;28;20681;-66
2022/03/27 01:08:13;;;;;;;22.97;17.37;;;8.80;99.90;;;;;;5012636;28;20160;-66
2022/03/27 01:10:40;;;;;;;20.33;17.00;;;8.70;99.90;;;;;;5012370;28;20279;-66
2022/03/27 01:13:18;;;;;;;19.60;16.47;;;8.70;99.90;;;;;;5012464;28;20178;-66
2022/03/27 01:16:06;;;;;;;19.03;15.83;;;8.70;99.90;;;;;;5011711;28;20266;-66
2022/03/27 01:18:32;;;;;;;17.33;15.00;;;8.80;99.90;;;;;;5011431;28;20184;-66
2022/03/27 01:20:58;;;;;;;19.33;15.53;;;8.80;99.90;;;;;;5011937;28;20176;-66
2022/03/27 01:23:23;;;;;;;20.83;16.90;;;8.90;99.90;;;;;;5011566;28;20226;-66
2022/03/27 01:25:49;;;;;;;21.47;16.57;;;9.00;99.90;;;;;;5011803;28;20211;-66
2022/03/27 01:28:15;;;;;;;19.40;15.03;;;9.00;99.90;;;;;;5010938;28;20630;-66
2022/03/27 01:30:41;;;;;;;17.37;15.23;;;9.00;99.90;;;;;;5012256;28;20169;-66
2022/03/27 01:33:10;;;;;;;21.80;14.97;;;9.10;99.90;;;;;;5011434;28;20192;-66
2022/03/27 01:35:37;;;;;;;17.27;14.80;;;9.00;99.90;;;;;;5010178;28;20228;-66
2022/03/27 01:38:03;;;;;;;18.07;14.63;;;9.10;99.90;;;;;;5002106;28;20393;-66
2022/03/27 01:40:29;;;;;;;17.33;15.27;;;9.10;99.90;;;;;;4992527;28;20188;-66
2022/03/27 01:42:55;;;;;;;21.00;15.57;;;9.10;99.90;;;;;;4995665;28;20214;-66
2022/03/27 01:45:22;;;;;;;19.57;15.70;;;9.10;99.90;;;;;;5011392;28;20754;-66
2022/03/27 01:47:48;;;;;;;20.30;16.93;;;9.00;99.90;;;;;;5011864;28;20642;-66
2022/03/27 01:50:14;;;;;;;20.97;17.00;;;8.90;99.90;;;;;;5011767;28;20198;-66
2022/03/27 01:52:40;;;;;;;18.63;16.10;;;8.80;99.90;;;;;;5010779;28;20176;-67
2022/03/27 01:55:12;;;;;;;21.43;15.17;;;8.70;99.90;;;;;;5011190;28;20242;-65
2022/03/27 01:57:39;;;;;;;18.40;15.27;;;8.60;99.90;;;;;;5011553;28;20195;-66
2022/03/27 02:00:06;;;;;;;19.30;15.63;;;8.60;99.90;;;;;;5010066;28;20208;-66
2022/03/27 02:02:31;;;;;;;19.70;15.47;;;8.60;99.90;;;;;;5011727;28;20712;-66
2022/03/27 02:04:57;;;;;;;21.83;17.30;;;8.60;99.90;;;;;;5011355;28;20204;-66
2022/03/27 02:07:23;;;;;;;18.20;16.37;;;8.50;99.90;;;;;;5010358;28;20222;-66
2022/03/27 02:09:49;;;;;;;24.20;16.87;;;8.50;99.90;;;;;;5011581;28;20211;-66
2022/03/27 02:12:15;;;;;;;20.77;15.70;;;8.40;99.90;;;;;;5009971;28;20175;-66
2022/03/27 02:14:41;;;;;;;17.43;15.37;;;8.40;99.90;;;;;;5009819;28;20241;-66
2022/03/27 02:17:08;;;;;;;20.10;16.33;;;8.30;99.90;;;;;;5011455;28;20212;-66
2022/03/27 02:19:35;;;;;;;19.53;15.70;;;8.20;99.90;;;;;;5010149;28;20230;-65
2022/03/27 02:22:01;;;;;;;19.30;16.07;;;8.10;99.90;;;;;;5011200;28;20204;-66
2022/03/27 02:24:27;;;;;;;23.90;16.03;;;8.00;99.90;;;;;;5011349;28;20238;-65
2022/03/27 02:26:52;;;;;;;18.23;15.67;;;7.90;99.90;;;;;;5011159;28;20677;-66
2022/03/27 02:29:18;;;;;;;16.63;14.93;;;7.90;99.90;;;;;;5010007;28;20182;-66
2022/03/27 02:31:44;;;;;;;18.23;16.43;;;7.90;99.90;;;;;;5010021;28;20172;-66
2022/03/27 02:34:10;;;;;;;20.77;16.07;;;8.00;99.90;;;;;;5011521;28;20196;-66
2022/03/27 02:36:36;;;;;;;23.07;17.87;;;8.00;99.90;;;;;;5009690;28;20238;-66
2022/03/27 02:39:02;;;;;;;20.70;16.93;;;7.90;99.90;;;;;;5009287;28;20221;-66
2022/03/27 02:41:28;;;;;;;21.47;16.33;;;8.00;99.90;;;;;;5010173;28;20576;-66
2022/03/27 02:43:54;;;;;;;23.60;16.70;;;8.00;99.90;;;;;;5011193;28;20180;-66
2022/03/27 02:46:19;;;;;;;21.60;15.30;;;8.00;99.90;;;;;;5014279;28;20270;-66
2022/03/27 02:48:45;;;;;;;25.73;14.93;;;8.00;99.90;;;;;;5014912;28;20180;-66
2022/03/27 02:51:10;;;;;;;18.90;15.00;;;8.00;99.90;;;;;;5014815;28;20172;-66
2022/03/27 02:53:36;;;;;;;17.90;15.03;;;8.10;99.90;;;;;;5015337;28;20180;-66
2022/03/27 02:56:04;;;;;;;20.37;17.47;;;8.10;99.90;;;;;;5013249;28;20223;-66
2022/03/27 02:58:30;;;;;;;17.70;14.50;;;8.20;99.90;;;;;;5014811;28;20168;-67
2022/03/27 03:00:56;;;;;;;16.90;14.40;;;8.20;99.90;;;;;;5013733;28;20188;-66
2022/03/27 03:03:22;;;;;;;17.53;15.33;;;8.20;99.90;;;;;;5013422;28;20204;-66
2022/03/27 03:05:48;;;;;;;21.77;15.77;;;8.20;99.90;;;;;;5013004;28;20200;-66
2022/03/27 03:08:17;;;;;;;17.97;15.83;;;8.20;99.90;;;;;;5013089;28;20176;-66
2022/03/27 03:10:44;;;;;;;21.67;17.23;;;8.20;99.90;;;;;;5014459;28;20207;-66
2022/03/27 03:13:10;;;;;;;18.87;16.53;;;8.20;99.90;;;;;;5013229;28;20279;-66
2022/03/27 03:15:38;;;;;;;20.47;16.73;;;8.20;99.90;;;;;;5013974;28;20211;-66
2022/03/27 03:18:08;;;;;;;22.87;17.70;;;8.20;99.90;;;;;;5014554;28;20184;-66
2022/03/27 03:20:35;;;;;;;19.80;16.47;;;8.20;99.90;;;;;;5014020;28;20238;-66
2022/03/27 03:23:00;;;;;;;17.10;15.27;;;8.20;99.90;;;;;;5014309;28;20207;-66
2022/03/27 03:25:26;;;;;;;17.83;15.90;;;8.10;99.90;;;;;;5013583;28;20196;-66
2022/03/27 03:27:52;;;;;;;18.00;15.93;;;8.00;99.90;;;;;;5014419;28;20669;-67
2022/03/27 03:30:17;;;;;;;21.93;16.73;;;7.90;99.90;;;;;;5013085;28;20523;-66
2022/03/27 03:32:43;;;;;;;18.53;16.73;;;7.90;99.90;;;;;;5014580;28;20184;-66
2022/03/27 03:35:10;;;;;;;19.43;15.77;;;7.90;99.90;;;;;;5013544;28;20195;-66
2022/03/27 03:37:36;;;;;;;20.37;17.30;;;7.90;99.90;;;;;;5014169;28;20168;-66
2022/03/27 03:40:04;;;;;;;22.63;16.70;;;7.90;99.90;;;;;;5013795;28;20671;-66
2022/03/27 03:42:29;;;;;;;23.27;16.83;;;7.90;99.90;;;;;;5013971;28;20276;-66
2022/03/27 03:44:55;;;;;;;20.13;17.63;;;7.90;99.90;;;;;;5012367;28;20198;-66
2022/03/27 03:47:21;;;;;;;25.10;18.77;;;7.90;99.90;;;;;;5013668;28;20204;-66
2022/03/27 03:49:46;;;;;;;24.40;17.80;;;7.80;99.90;;;;;;5012743;28;20172;-66
2022/03/27 03:52:12;;;;;;;18.00;16.10;;;7.80;99.90;;;;;;5013887;28;20607;-66
2022/03/27 03:54:38;;;;;;;18.47;16.20;;;7.80;99.90;;;;;;5013188;28;20729;-66
2022/03/27 03:57:05;;;;;;;19.00;16.47;;;7.80;99.90;;;;;;5013650;28;20282;-66
2022/03/27 03:59:33;;;;;;;22.90;17.53;;;7.80;99.90;;;;;;5013616;28;20176;-66
2022/03/27 04:01:59;;;;;;;20.70;16.67;;;7.80;99.90;;;;;;5012963;28;20224;-66
2022/03/27 04:04:25;;;;;;;20.87;17.40;;;7.80;99.90;;;;;;5013152;28;20212;-66
2022/03/27 04:06:51;;;;;;;21.97;17.17;;;7.70;99.90;;;;;;5012401;28;20195;-66
2022/03/27 04:09:17;;;;;;;20.37;15.83;;;7.70;99.90;;;;;;5012267;28;20267;-66
2022/03/27 04:11:43;;;;;;;23.17;16.07;;;7.60;99.90;;;;;;5013329;28;20187;-66
2022/03/27 04:14:09;;;;;;;19.07;16.30;;;7.50;99.90;;;;;;5012052;28;20187;-66
2022/03/27 04:16:34;;;;;;;19.77;17.70;;;7.50;99.90;;;;;;5012755;28;20557;-66
2022/03/27 04:19:00;;;;;;;23.73;17.13;;;7.40;99.90;;;;;;5013141;28;20184;-66
2022/03/27 04:21:26;;;;;;;23.00;18.40;;;7.40;99.90;;;;;;5013433;28;20172;-66
2022/03/27 04:23:52;;;;;;;22.73;18.53;;;7.40;99.90;;;;;;5012676;28;20550;-66
2022/03/27 04:26:18;;;;;;;23.83;17.63;;;7.40;99.90;;;;;;5011692;28;20202;-66
2022/03/27 04:28:44;;;;;;;21.50;17.93;;;7.30;99.90;;;;;;5011321;28;20254;-67
2022/03/27 04:31:11;;;;;;;20.53;16.87;;;7.30;99.90;;;;;;5010686;28;20187;-66
2022/03/27 04:33:36;;;;;;;22.53;18.90;;;7.20;99.90;;;;;;5013192;28;20168;-66
2022/03/27 04:36:06;;;;;;;25.30;20.00;;;7.20;99.90;;;;;;5012720;28;20196;-66
2022/03/27 04:38:32;;;;;;;25.13;19.03;;;7.20;99.90;;;;;;5011834;28;20169;-66
2022/03/27 04:40:57;;;;;;;30.07;20.80;;;7.20;99.90;;;;;;5012140;28;20263;-66
2022/03/27 04:43:23;;;;;;;27.00;20.03;;;7.20;99.90;;;;;;5012256;28;20283;-66
2022/03/27 04:45:49;;;;;;;29.23;19.13;;;7.20;99.90;;;;;;5012448;28;20275;-66
2022/03/27 04:48:15;;;;;;;30.10;20.43;;;7.20;99.90;;;;;;5013299;28;20255;-66
2022/03/27 04:50:41;;;;;;;29.53;21.27;;;7.20;99.90;;;;;;5011578;28;20267;-66
2022/03/27 04:53:06;;;;;;;31.67;22.57;;;7.30;99.90;;;;;;5013122;28;20259;-66
2022/03/27 04:55:32;;;;;;;30.07;21.23;;;7.30;99.90;;;;;;5012155;28;20204;-66
2022/03/27 04:57:58;;;;;;;27.87;20.57;;;7.30;99.90;;;;;;5011432;28;20269;-66
2022/03/27 05:00:24;;;;;;;32.70;22.20;;;7.30;99.90;;;;;;5010980;28;20177;-66
2022/03/27 05:02:49;;;;;;;25.13;20.73;;;7.30;99.90;;;;;;5011298;28;20211;-66
2022/03/27 05:05:15;;;;;;;30.87;22.20;;;7.40;99.90;;;;;;5012329;28;20391;-66
2022/03/27 05:07:42;;;;;;;29.30;21.57;;;7.30;99.90;;;;;;5011694;28;20196;-66
2022/03/27 05:10:09;;;;;;;33.83;22.43;;;7.30;99.90;;;;;;5012570;28;20191;-66
2022/03/27 05:12:35;;;;;;;28.70;22.70;;;7.40;99.90;;;;;;5010879;28;20176;-66
2022/03/27 05:15:01;;;;;;;36.70;24.13;;;7.40;99.90;;;;;;5011997;28;20255;-66
2022/03/27 05:17:27;;;;;;;35.97;22.80;;;7.40;99.90;;;;;;5012245;28;20208;-66
2022/03/27 05:19:52;;;;;;;30.67;23.27;;;7.50;99.90;;;;;;5011108;28;20215;-66
2022/03/27 05:22:18;;;;;;;35.83;25.10;;;7.50;99.90;;;;;;5011978;28;20196;-66
2022/03/27 05:24:45;;;;;;;36.13;24.13;;;7.50;99.90;;;;;;5012126;28;20187;-66
2022/03/27 05:27:12;;;;;;;37.13;24.43;;;7.50;99.90;;;;;;5012019;28;20188;-65
2022/03/27 05:29:37;;;;;;;43.57;25.13;;;7.60;99.90;;;;;;5012414;28;20254;-66
2022/03/27 05:32:03;;;;;;;40.00;24.67;;;7.60;99.90;;;;;;5010538;28;20665;-65
2022/03/27 05:34:29;;;;;;;38.50;25.00;;;7.60;99.90;;;;;;5012019;28;20184;-66
2022/03/27 05:36:54;;;;;;;40.20;25.23;;;7.60;99.90;;;;;;5011615;28;20709;-66
2022/03/27 05:39:20;;;;;;;39.93;26.70;;;7.60;99.90;;;;;;4995987;28;20177;-66
2022/03/27 05:41:46;;;;;;;37.93;24.77;;;7.70;99.90;;;;;;4992234;28;20204;-66
2022/03/27 05:44:11;;;;;;;42.13;27.60;;;7.70;99.90;;;;;;5001058;28;20186;-65
2022/03/27 05:46:37;;;;;;;44.53;25.80;;;7.70;99.90;;;;;;5011082;28;20250;-66
2022/03/27 05:49:03;;;;;;;41.20;27.83;;;7.80;99.90;;;;;;5010628;28;20649;-65
2022/03/27 05:51:28;;;;;;;43.87;26.80;;;7.80;99.90;;;;;;5010994;28;20175;-66
2022/03/27 05:53:54;;;;;;;39.93;26.07;;;7.80;99.90;;;;;;5011408;28;20216;-65
2022/03/27 05:56:20;;;;;;;43.10;27.83;;;7.80;99.90;;;;;;5019166;28;20196;-66
2022/03/27 05:58:45;;;;;;;46.20;27.93;;;7.90;99.90;;;;;;5026051;28;20176;-66
2022/03/27 06:01:11;;;;;;;44.47;30.73;;;7.90;99.90;;;;;;5026637;28;20202;-66
2022/03/27 06:03:36;;;;;;;43.60;27.97;;;7.90;99.90;;;;;;5020467;28;20243;-66
2022/03/27 06:06:04;;;;;;;43.63;28.87;;;8.00;99.90;;;;;;5010421;28;20204;-66
2022/03/27 06:08:29;;;;;;;47.03;28.17;;;8.00;99.90;;;;;;5011113;28;20187;-66
2022/03/27 06:10:55;;;;;;;49.80;30.13;;;8.00;99.90;;;;;;5011493;28;20182;-66
2022/03/27 06:13:21;;;;;;;48.00;29.37;;;8.10;99.90;;;;;;4994101;28;20188;-66
2022/03/27 06:15:46;;;;;;;46.87;28.57;;;8.20;99.90;;;;;;5006179;28;20310;-66
2022/03/27 06:18:12;;;;;;;49.60;29.10;;;8.20;99.90;;;;;;5012786;28;20223;-66
2022/03/27 06:20:39;;;;;;;40.23;27.80;;;8.30;99.90;;;;;;5014290;28;20192;-66
2022/03/27 06:23:06;;;;;;;54.40;32.13;;;8.40;99.90;;;;;;5015710;28;20290;-66
2022/03/27 06:25:33;;;;;;;51.80;31.53;;;8.50;99.90;;;;;;5015173;28;20294;-66
2022/03/27 06:27:59;;;;;;;42.57;29.47;;;8.60;99.90;;;;;;5014186;28;20191;-66
2022/03/27 06:30:27;;;;;;;48.43;28.93;;;8.60;99.90;;;;;;5013013;28;20609;-66
2022/03/27 06:32:54;;;;;;;50.80;31.00;;;8.70;99.90;;;;;;5015312;28;20242;-67
2022/03/27 06:35:22;;;;;;;52.47;29.13;;;8.70;99.90;;;;;;5013575;28;20226;-67
2022/03/27 06:37:49;;;;;;;43.57;28.37;;;8.70;99.90;;;;;;5015381;28;20172;-66
2022/03/27 06:40:16;;;;;;;46.03;29.43;;;8.70;99.90;;;;;;5015023;28;20594;-66
2022/03/27 06:42:43;;;;;;;46.13;29.87;;;8.80;99.90;;;;;;5003367;28;20201;-66
2022/03/27 06:45:13;;;;;;;49.10;29.77;;;8.90;99.90;;;;;;4999692;28;20180;-66
2022/03/27 06:47:39;;;;;;;46.03;27.70;;;9.10;99.90;;;;;;5015251;28;20187;-66
2022/03/27 06:50:06;;;;;;;50.07;31.30;;;9.30;99.90;;;;;;5013042;28;20641;-66
2022/03/27 06:52:34;;;;;;;47.67;29.30;;;9.40;99.90;;;;;;5014124;28;20195;-66
2022/03/27 06:55:00;;;;;;;45.23;30.00;;;9.60;99.90;;;;;;5014650;28;20183;-66
2022/03/27 06:57:26;;;;;;;44.23;28.13;;;9.70;99.90;;;;;;5013733;28;20204;-66
2022/03/27 07:05:22;;;;;;;32.27;23.87;;;10.20;99.90;;;;;;5014275;28;20226;-66
2022/03/27 07:07:48;;;;;;;34.03;24.70;;;10.30;99.90;;;;;;5015021;28;20172;-67
2022/03/27 07:10:14;;;;;;;31.97;23.57;;;10.40;99.90;;;;;;5014835;28;20656;-66
2022/03/27 07:12:39;;;;;;;32.17;24.60;;;10.70;99.90;;;;;;5013281;28;20183;-66
2022/03/27 07:15:06;;;;;;;29.33;22.77;;;10.90;99.90;;;;;;5014086;28;20655;-67
2022/03/27 07:17:32;;;;;;;26.90;21.10;;;11.20;99.90;;;;;;5014722;28;20211;-67
2022/03/27 07:19:58;;;;;;;30.17;21.20;;;11.50;99.90;;;;;;5014624;28;20421;-67
2022/03/27 07:22:24;;;;;;;29.07;21.30;;;11.80;99.90;;;;;;5014336;28;20236;-67
2022/03/27 07:24:50;;;;;;;24.00;18.77;;;12.10;99.90;;;;;;5013372;28;20255;-67
2022/03/27 07:27:16;;;;;;;24.23;20.37;;;12.30;99.90;;;;;;5014363;28;20226;-67
2022/03/27 07:29:42;;;;;;;27.43;20.07;;;12.50;99.90;;;;;;5013386;28;20175;-67
2022/03/27 07:32:09;;;;;;;26.60;20.60;;;12.60;99.90;;;;;;4995382;28;20185;-67
2022/03/27 07:34:37;;;;;;;24.07;19.40;;;12.80;99.90;;;;;;4994552;28;20208;-67
2022/03/27 07:37:03;;;;;;;23.83;20.03;;;13.00;99.90;;;;;;5013769;28;20212;-67
2022/03/27 07:39:29;;;;;;;23.43;19.47;;;13.20;99.90;;;;;;5012733;28;20184;-67
2022/03/27 07:41:55;;;;;;;20.90;17.87;;;13.30;99.90;;;;;;5012610;28;20677;-67
2022/03/27 07:44:21;;;;;;;21.53;18.17;;;13.60;99.90;;;;;;5014249;28;20164;-67
2022/03/27 07:46:48;;;;;;;27.87;19.00;;;13.90;99.90;;;;;;5013646;28;20712;-67
2022/03/27 07:49:14;;;;;;;21.80;18.23;;;14.10;99.90;;;;;;5014265;28;20168;-67
2022/03/27 07:51:40;;;;;;;20.57;17.70;;;14.40;99.90;;;;;;5012532;28;20184;-67
2022/03/27 07:54:05;;;;;;;22.40;18.57;;;14.70;99.90;;;;;;5011597;28;20533;-68
2022/03/27 07:56:32;;;;;;;20.53;16.17;;;15.10;99.90;;;;;;5013514;28;20204;-67
2022/03/27 07:58:57;;;;;;;18.70;16.73;;;15.70;99.90;;;;;;5013385;28;20724;-67
2022/03/27 08:01:24;;;;;;;21.37;17.40;;;16.20;99.90;;;;;;5012393;28;20207;-67
2022/03/27 08:03:50;;;;;;;19.30;16.57;;;16.10;99.90;;;;;;5013460;28;20302;-67
2022/03/27 08:06:16;;;;;;;19.60;17.13;;;15.90;99.90;;;;;;5013371;28;20278;-67
2022/03/27 08:08:42;;;;;;;19.70;17.53;;;15.50;99.90;;;;;;5013684;28;20275;-67
2022/03/27 08:11:08;;;;;;;23.40;18.23;;;15.00;99.90;;;;;;5013898;28;20179;-67
2022/03/27 08:13:34;;;;;;;22.07;18.80;;;14.80;99.90;;;;;;5013350;28;20183;-66
2022/03/27 08:16:00;;;;;;;24.37;17.83;;;14.70;99.90;;;;;;5012913;28;20685;-67
2022/03/27 08:18:26;;;;;;;20.93;17.60;;;14.90;99.90;;;;;;5013195;28;20672;-67
2022/03/27 08:20:52;;;;;;;20.07;17.50;;;15.00;99.90;;;;;;5013344;28;20176;-67
2022/03/27 08:23:18;;;;;;;21.13;17.03;;;14.90;99.90;;;;;;5012932;28;20208;-67
2022/03/27 08:28:28;;;;;;;20.43;17.00;;;15.30;99.90;;;;;;5013406;28;20183;-67
2022/03/27 08:30:53;;;;;;;17.97;15.83;;;15.70;99.90;;;;;;5010293;28;20574;-67
2022/03/27 08:33:19;;;;;;;21.23;17.07;;;15.90;99.90;;;;;;5009154;28;20215;-67
2022/03/27 08:35:46;;;;;;;18.30;16.40;;;16.20;99.90;;;;;;5009710;28;20262;-67
2022/03/27 08:38:14;;;;;;;18.70;16.33;;;16.30;99.90;;;;;;5007705;28;20565;-65
2022/03/27 08:40:42;;;;;;;17.47;15.20;;;16.50;99.90;;;;;;5008437;28;20769;-65
2022/03/27 08:43:12;;;;;;;16.67;14.40;;;17.20;99.90;;;;;;5008099;28;20614;-65
2022/03/27 08:45:39;;;;;;;15.63;13.90;;;17.70;99.90;;;;;;5008058;28;20697;-66
2022/03/27 08:48:05;;;;;;;18.15;15.07;;;18.00;99.90;;;;;;5007796;28;20698;-67
2022/03/27 08:50:52;;;;;;;16.05;14.40;;;18.70;99.90;;;;;;5008544;28;20191;-66
2022/03/27 08:53:28;;;;;;;16.23;14.55;;;19.00;99.90;;;;;;5009261;28;20250;-66
2022/03/27 08:56:00;;;;;;;16.83;15.10;;;19.10;99.90;;;;;;5008689;28;20206;-67
2022/03/27 08:58:37;;;;;;;17.70;15.82;;;19.40;99.90;;;;;;5009281;28;20183;-66
2022/03/27 09:01:04;;;;;;;17.48;14.77;;;19.60;99.90;;;;;;5007950;28;20287;-67
2022/03/27 09:03:31;;;;;;;16.40;14.70;;;20.00;99.90;;;;;;5009017;28;20219;-67
2022/03/27 09:05:57;;;;;;;16.30;13.80;;;20.50;99.90;;;;;;5009460;28;20273;-66
2022/03/27 09:08:22;;;;;;;15.45;13.90;;;20.70;99.90;;;;;;5012414;28;20239;-66
2022/03/27 09:10:48;;;;;;;17.67;15.40;;;20.90;99.90;;;;;;5010932;28;20212;-67
2022/03/27 09:13:19;;;;;;;16.95;14.52;;;20.60;99.90;;;;;;5011081;28;20191;-66
2022/03/27 09:15:55;;;;;;;16.95;15.18;;;20.50;99.90;;;;;;5010666;28;20223;-67
2022/03/27 09:18:21;;;;;;;18.48;16.50;;;20.20;99.90;;;;;;5012399;28;20675;-67
2022/03/27 09:20:51;;;;;;;19.77;16.50;;;19.80;99.90;;;;;;5012302;28;20188;-67
2022/03/27 09:23:21;;;;;;;17.20;15.40;;;20.20;99.90;;;;;;5012575;28;20200;-67
2022/03/27 09:26:07;;;;;;;20.67;15.27;;;20.10;99.90;;;;;;5011343;28;20203;-66
2022/03/27 09:28:36;;;;;;;19.00;16.50;;;19.90;99.90;;;;;;5012365;28;20183;-67
2022/03/27 09:31:14;;;;;;;18.15;16.35;;;19.80;99.90;;;;;;5010709;28;20188;-66
2022/03/27 09:33:47;;;;;;;19.35;15.88;;;19.90;99.90;;;;;;5012692;28;20545;-67
2022/03/27 09:36:17;;;;;;;17.10;15.43;;;19.90;99.90;;;;;;5026589;28;20208;-67
2022/03/27 09:39:02;;;;;;;17.35;15.55;;;19.90;99.90;;;;;;5026547;28;20576;-67
2022/03/27 09:41:38;;;;;;;17.00;15.00;;;20.30;99.90;;;;;;5022709;28;20233;-67
2022/03/27 09:44:10;;;;;;;17.58;15.80;;;20.50;99.90;;;;;;5026661;28;20176;-65
2022/03/27 09:46:53;;;;;;;19.38;17.23;;;20.70;99.90;;;;;;5024395;28;20291;-65
2022/03/27 09:49:37;;;;;;;16.98;15.23;;;20.80;99.90;;;;;;5010794;28;20183;-65
2022/03/27 09:52:08;;;;;;;18.20;15.50;;;21.00;99.90;;;;;;5007628;28;20210;-66
2022/03/27 09:54:50;;;;;;;16.90;14.98;;;20.70;99.90;;;;;;4992083;28;20255;-66
2022/03/27 09:57:17;;;;;;;16.77;15.02;;;20.40;99.90;;;;;;4992498;28;20616;-65
2022/03/27 09:59:45;;;;;;;17.33;15.52;;;20.60;99.90;;;;;;5011342;28;20184;-66
2022/03/27 10:02:19;;;;;;;17.08;15.27;;;20.90;99.90;;;;;;5010321;28;20238;-66
2022/03/27 10:04:57;;;;;;;17.15;15.18;;;20.80;99.90;;;;;;5011355;28;20624;-66
2022/03/27 10:07:25;;;;;;;17.45;14.93;;;21.40;99.90;;;;;;5011010;28;20226;-66
2022/03/27 10:09:52;;;;;;;17.23;14.30;;;21.90;99.90;;;;;;5010001;28;20175;-66
2022/03/27 10:12:18;;;;;;;20.20;14.32;;;22.20;99.90;;;;;;5011362;28;20180;-66
2022/03/27 10:14:46;;;;;;;16.73;14.95;;;22.20;99.90;;;;;;5011436;28;20274;-66
2022/03/27 10:17:14;;;;;;;16.17;14.48;;;22.60;99.90;;;;;;5032915;22;20236;-64
2022/03/27 10:19:54;;;;;;;15.25;13.75;;;22.80;99.90;;;;;;5011483;28;20224;-64
2022/03/27 10:22:21;;;;;;;16.33;14.52;;;22.50;99.90;;;;;;5011281;28;20582;-64
2022/03/27 10:24:53;;;;;;;15.82;14.20;;;22.10;99.90;;;;;;5011217;28;20224;-64
2022/03/27 10:27:19;;;;;;;15.18;13.73;;;22.00;99.90;;;;;;5010946;28;20606;-64
2022/03/27 10:29:47;;;;;;;15.38;13.80;;;22.10;99.90;;;;;;5011463;28;20168;-64
2022/03/27 10:32:13;;;;;;;15.25;13.75;;;22.40;99.90;;;;;;5011132;28;20697;-64
2022/03/27 10:35:02;;;;;;;14.57;13.13;;;22.80;99.90;;;;;;5011426;28;20183;-64
2022/03/27 10:37:41;;;;;;;14.82;13.35;;;22.70;99.90;;;;;;5010889;28;20211;-64
2022/03/27 10:40:19;;;;;;;15.48;13.93;;;22.50;99.90;;;;;;5011470;28;20176;-64
2022/03/27 10:43:08;;;;;;;15.10;13.60;;;22.50;99.90;;;;;;5011063;28;20208;-64
2022/03/27 10:45:35;;;;;;;16.05;14.45;;;22.60;99.90;;;;;;5011103;28;20217;-64
2022/03/27 10:48:20;;;;;;;16.50;13.93;;;22.60;99.90;;;;;;5010469;28;20615;-63
2022/03/27 10:50:46;;;;;;;15.35;13.77;;;22.40;99.90;;;;;;5011091;28;20536;-64
2022/03/27 10:53:12;;;;;;;16.27;14.18;;;22.20;99.90;;;;;;5011104;28;20188;-64
2022/03/27 10:55:44;;;;;;;16.00;14.25;;;22.20;99.90;;;;;;5010814;28;20263;-65
2022/03/27 10:58:26;;;;;;;15.15;13.40;;;22.30;99.90;;;;;;5010654;28;20188;-64
2022/03/27 11:00:52;;;;;;;21.48;16.10;;;22.50;99.90;;;;;;5010735;28;20176;-65
2022/03/27 11:03:49;;;;;;;17.80;15.88;;;22.20;99.90;;;;;;4991561;28;20211;-64
2022/03/27 11:06:30;;;;;;;16.75;14.52;;;21.80;99.90;;;;;;4991089;28;20212;-64
2022/03/27 11:08:58;;;;;;;16.75;14.32;;;21.90;99.90;;;;;;5013343;28;20190;-64
2022/03/27 11:11:51;;;;;;;15.57;13.95;;;22.00;99.90;;;;;;5014697;28;20187;-64
2022/03/27 11:14:23;;;;;;;20.63;16.90;;;21.90;99.90;;;;;;5013071;28;20188;-64
2022/03/27 11:17:37;;;;;;;19.95;16.55;;;21.90;99.90;;;;;;5013756;28;20554;-64
2022/03/27 11:20:05;;;;;;;23.42;17.88;;;22.40;99.90;;;;;;5010539;28;20220;-64
2022/03/27 11:22:51;;;;;;;21.38;17.38;;;22.90;99.90;;;;;;5014290;28;20216;-64
2022/03/27 11:25:38;;;;;;;20.65;17.02;;;22.90;99.90;;;;;;5013974;28;20176;-64
2022/03/27 11:28:17;;;;;;;20.85;15.93;;;22.50;99.90;;;;;;5014201;28;20199;-64
2022/03/27 11:30:51;;;;;;;22.80;16.95;;;22.50;99.90;;;;;;5014178;28;20257;-64
2022/03/27 11:33:30;;;;;;;21.50;16.88;;;22.60;99.90;;;;;;5014451;28;20171;-63
2022/03/27 11:36:04;;;;;;;21.13;17.02;;;22.60;99.90;;;;;;5013356;28;20200;-63
2022/03/27 11:39:01;;;;;;;23.30;17.92;;;22.80;99.90;;;;;;5014419;28;20473;-64
2022/03/27 11:41:44;;;;;;;21.27;17.33;;;22.90;99.90;;;;;;5010703;28;20567;-64
2022/03/27 11:47:23;;;;;;;18.85;15.32;;;23.30;99.90;;;;;;4994583;28;20418;-63
2022/03/27 11:49:51;;;;;;;19.98;15.85;;;23.60;99.90;;;;;;4998233;28;20198;-64
2022/03/27 11:52:19;;;;;;;21.00;16.92;;;23.40;99.90;;;;;;5014268;28;20590;-63
2022/03/27 11:54:47;;;;;;;21.13;16.67;;;23.20;99.90;;;;;;5013336;28;20589;-64
2022/03/27 11:57:13;;;;;;;19.75;15.60;;;23.20;99.90;;;;;;5013888;28;20572;-64
2022/03/27 11:59:50;;;;;;;19.33;14.57;;;23.40;99.90;;;;;;5013637;28;20196;-64
2022/03/27 12:02:18;;;;;;;19.70;16.48;;;23.90;99.90;;;;;;5013915;28;20204;-64
2022/03/27 12:04:59;;;;;;;19.35;16.35;;;24.40;99.90;;;;;;5013083;28;20677;-64
2022/03/27 12:07:46;;;;;;;22.23;16.77;;;24.60;99.90;;;;;;5013724;28;20191;-64
2022/03/27 12:10:11;;;;;;;18.45;15.15;;;24.20;99.90;;;;;;4993930;28;20177;-64
2022/03/27 12:12:37;;;;;;;20.00;16.75;;;23.60;99.90;;;;;;4994718;28;20548;-63
2022/03/27 12:15:05;;;;;;;20.27;16.23;;;23.30;99.90;;;;;;5013115;28;20453;-63
2022/03/27 12:17:32;;;;;;;20.30;15.13;;;23.20;99.90;;;;;;5013137;28;20208;-64
2022/03/27 12:20:06;;;;;;;17.35;13.73;;;23.30;99.90;;;;;;5013227;28;20176;-64
2022/03/27 12:22:39;;;;;;;20.10;14.48;;;23.20;99.90;;;;;;5013485;28;20200;-65
2022/03/27 12:25:20;;;;;;;20.52;15.48;;;23.20;99.90;;;;;;4993512;28;20199;-64
2022/03/27 12:30:43;;;;;;;19.65;14.80;;;23.50;99.90;;;;;;5013517;28;20238;-65
2022/03/27 12:33:08;;;;;;;18.80;15.02;;;23.70;99.90;;;;;;5012924;28;20642;-65
2022/03/27 12:35:34;;;;;;;19.48;14.77;;;23.60;99.90;;;;;;5013232;28;20543;-64
2022/03/27 12:38:00;;;;;;;17.88;15.40;;;23.40;99.90;;;;;;5012596;28;20626;-63
2022/03/27 12:40:28;;;;;;;18.08;13.98;;;23.40;99.90;;;;;;5013111;28;20184;-64
2022/03/27 12:43:09;;;;;;;17.10;14.32;;;23.80;99.90;;;;;;5012389;28;20609;-65
2022/03/27 12:45:36;;;;;;;20.40;14.32;;;23.50;99.90;;;;;;5012960;28;20172;-64
2022/03/27 12:48:03;;;;;;;15.40;13.32;;;22.70;99.90;;;;;;5012182;28;20182;-64
2022/03/27 12:50:33;;;;;;;18.38;15.35;;;22.40;99.90;;;;;;5013004;28;20226;-65
2022/03/27 12:53:28;;;;;;;16.08;14.32;;;22.20;99.90;;;;;;5013014;28;20184;-65
2022/03/27 12:55:56;;;;;;;16.73;14.07;;;22.20;99.90;;;;;;4998815;28;20212;-65